Terminal Aerodrome Forecast
Issued by NWS

Home | Current Version | Previous Version | Text Only | Print | Product List | Glossary On
Versions: 1 2 3 4 5 6 7 8 9 10 11 12
000
FTUS46 KSGX 152300
TAFCRQ
TAF
KCRQ 152320Z 1600/1624 25007KT P6SM SKC
     FM160200 VRB04KT P6SM SKC
     FM161900 26008KT P6SM SKC=

USA.gov is the U.S. government's official web portal to all federal, state and local government web resources and services.